sensor_id;sensor_type;location;lat;lon;timestamp;pressure;altitude;pressure_sealevel;temperature;humidity
30182;BME280;16990;49.056;9.240;2022-10-17T00:00:27;99257.47;;;14.41;100.00
30182;BME280;16990;49.056;9.240;2022-10-17T00:02:55;99247.56;;;14.41;100.00
30182;BME280;16990;49.056;9.240;2022-10-17T00:05:22;99252.94;;;14.41;100.00
30182;BME280;16990;49.056;9.240;2022-10-17T00:07:49;99256.09;;;14.38;100.00
30182;BME280;16990;49.056;9.240;2022-10-17T00:10:18;99252.81;;;14.36;100.00
30182;BME280;16990;49.056;9.240;2022-10-17T00:12:45;99253.41;;;14.38;100.00
30182;BME280;16990;49.056;9.240;2022-10-17T00:15:14;99250.78;;;14.43;100.00
30182;BME280;16990;49.056;9.240;2022-10-17T00:17:41;99256.16;;;14.43;100.00
30182;BME280;16990;49.056;9.240;2022-10-17T00:20:09;99247.28;;;14.43;100.00
30182;BME280;16990;49.056;9.240;2022-10-17T00:22:36;99263.19;;;14.44;100.00
30182;BME280;16990;49.056;9.240;2022-10-17T00:25:03;99252.28;;;14.34;100.00
30182;BME280;16990;49.056;9.240;2022-10-17T00:27:33;99274.91;;;14.38;100.00
30182;BME280;16990;49.056;9.240;2022-10-17T00:30:00;99248.19;;;14.15;100.00
30182;BME280;16990;49.056;9.240;2022-10-17T00:32:27;99274.44;;;14.24;100.00
30182;BME280;16990;49.056;9.240;2022-10-17T00:34:53;99276.38;;;14.29;100.00
30182;BME280;16990;49.056;9.240;2022-10-17T00:37:20;99261.09;;;14.13;100.00
30182;BME280;16990;49.056;9.240;2022-10-17T00:39:47;99268.41;;;14.17;100.00
30182;BME280;16990;49.056;9.240;2022-10-17T00:42:14;99278.41;;;14.22;100.00
30182;BME280;16990;49.056;9.240;2022-10-17T00:45:02;99268.00;;;14.09;100.00
30182;BME280;16990;49.056;9.240;2022-10-17T00:47:30;99261.31;;;14.11;100.00
30182;BME280;16990;49.056;9.240;2022-10-17T00:49:58;99258.94;;;14.15;100.00
30182;BME280;16990;49.056;9.240;2022-10-17T00:52:28;99278.53;;;14.27;100.00
30182;BME280;16990;49.056;9.240;2022-10-17T00:54:58;99260.75;;;14.60;100.00
30182;BME280;16990;49.056;9.240;2022-10-17T00:57:29;99272.66;;;14.47;100.00
30182;BME280;16990;49.056;9.240;2022-10-17T01:00:00;99238.50;;;14.31;100.00
30182;BME280;16990;49.056;9.240;2022-10-17T01:02:28;99261.06;;;14.46;100.00
30182;BME280;16990;49.056;9.240;2022-10-17T01:04:55;99255.75;;;14.52;100.00
30182;BME280;16990;49.056;9.240;2022-10-17T01:07:25;99269.72;;;14.49;100.00
30182;BME280;16990;49.056;9.240;2022-10-17T01:09:52;99272.06;;;14.79;100.00
30182;BME280;16990;49.056;9.240;2022-10-17T01:12:23;99249.13;;;14.76;100.00
30182;BME280;16990;49.056;9.240;2022-10-17T01:15:04;99266.69;;;14.62;100.00
30182;BME280;16990;49.056;9.240;2022-10-17T01:17:41;99255.94;;;14.62;100.00
30182;BME280;16990;49.056;9.240;2022-10-17T01:20:40;99265.00;;;14.56;100.00
30182;BME280;16990;49.056;9.240;2022-10-17T01:23:26;99258.97;;;14.49;100.00
30182;BME280;16990;49.056;9.240;2022-10-17T01:25:57;99257.06;;;14.49;100.00
30182;BME280;16990;49.056;9.240;2022-10-17T01:28:42;99249.66;;;14.39;100.00
30182;BME280;16990;49.056;9.240;2022-10-17T01:31:20;99275.09;;;14.49;100.00
30182;BME280;16990;49.056;9.240;2022-10-17T01:33:54;99289.19;;;14.39;100.00
30182;BME280;16990;49.056;9.240;2022-10-17T01:36:34;99268.75;;;14.21;100.00
30182;BME280;16990;49.056;9.240;2022-10-17T01:39:09;99264.81;;;14.12;100.00
30182;BME280;16990;49.056;9.240;2022-10-17T01:41:41;99268.56;;;14.11;100.00
30182;BME280;16990;49.056;9.240;2022-10-17T01:44:12;99285.19;;;14.24;100.00
30182;BME280;16990;49.056;9.240;2022-10-17T01:46:42;99291.72;;;14.29;100.00
30182;BME280;16990;49.056;9.240;2022-10-17T01:49:12;99279.50;;;14.21;100.00
30182;BME280;16990;49.056;9.240;2022-10-17T01:51:41;99283.97;;;14.15;100.00
30182;BME280;16990;49.056;9.240;2022-10-17T01:54:13;99281.28;;;14.15;100.00
30182;BME280;16990;49.056;9.240;2022-10-17T01:56:43;99285.44;;;14.23;100.00
30182;BME280;16990;49.056;9.240;2022-10-17T01:59:13;99269.53;;;14.04;100.00
30182;BME280;16990;49.056;9.240;2022-10-17T02:01:44;99273.13;;;14.10;100.00
30182;BME280;16990;49.056;9.240;2022-10-17T02:04:11;99264.56;;;13.96;100.00
30182;BME280;16990;49.056;9.240;2022-10-17T02:06:38;99259.19;;;13.96;100.00
30182;BME280;16990;49.056;9.240;2022-10-17T02:09:19;99256.50;;;13.96;100.00
30182;BME280;16990;49.056;9.240;2022-10-17T02:11:55;99259.28;;;14.01;100.00
30182;BME280;16990;49.056;9.240;2022-10-17T02:14:33;99258.22;;;14.02;100.00
30182;BME280;16990;49.056;9.240;2022-10-17T02:17:13;99275.72;;;14.05;100.00
30182;BME280;16990;49.056;9.240;2022-10-17T02:19:54;99246.63;;;13.85;100.00
30182;BME280;16990;49.056;9.240;2022-10-17T02:22:31;99279.63;;;13.97;100.00
30182;BME280;16990;49.056;9.240;2022-10-17T02:25:07;99266.09;;;13.92;100.00
30182;BME280;16990;49.056;9.240;2022-10-17T02:27:41;99259.25;;;13.85;100.00
30182;BME280;16990;49.056;9.240;2022-10-17T02:30:10;99275.69;;;13.88;100.00
30182;BME280;16990;49.056;9.240;2022-10-17T02:32:43;99257.84;;;13.65;100.00
30182;BME280;16990;49.056;9.240;2022-10-17T02:35:13;99280.41;;;13.81;100.00
30182;BME280;16990;49.056;9.240;2022-10-17T02:37:42;99277.63;;;13.76;100.00
30182;BME280;16990;49.056;9.240;2022-10-17T02:40:12;99267.03;;;13.69;100.00
30182;BME280;16990;49.056;9.240;2022-10-17T02:42:43;99272.75;;;13.73;100.00
30182;BME280;16990;49.056;9.240;2022-10-17T02:45:11;99276.47;;;13.72;100.00
30182;BME280;16990;49.056;9.240;2022-10-17T02:47:48;99280.63;;;13.63;100.00
30182;BME280;16990;49.056;9.240;2022-10-17T02:50:16;99282.97;;;13.59;100.00
30182;BME280;16990;49.056;9.240;2022-10-17T02:52:47;99285.06;;;13.57;100.00
30182;BME280;16990;49.056;9.240;2022-10-17T02:55:18;99278.91;;;13.56;100.00
30182;BME280;16990;49.056;9.240;2022-10-17T02:57:51;99291.75;;;13.54;100.00
30182;BME280;16990;49.056;9.240;2022-10-17T03:00:20;99275.53;;;13.49;100.00
30182;BME280;16990;49.056;9.240;2022-10-17T03:02:50;99283.09;;;13.52;100.00
30182;BME280;16990;49.056;9.240;2022-10-17T03:05:19;99295.63;;;13.47;100.00
30182;BME280;16990;49.056;9.240;2022-10-17T03:07:47;99292.47;;;13.50;100.00
30182;BME280;16990;49.056;9.240;2022-10-17T03:10:14;99296.25;;;13.37;100.00
30182;BME280;16990;49.056;9.240;2022-10-17T03:12:41;99289.91;;;13.43;100.00
30182;BME280;16990;49.056;9.240;2022-10-17T03:15:08;99295.19;;;13.38;100.00
30182;BME280;16990;49.056;9.240;2022-10-17T03:17:35;99305.72;;;13.28;100.00
30182;BME280;16990;49.056;9.240;2022-10-17T03:20:05;99307.47;;;13.34;100.00
30182;BME280;16990;49.056;9.240;2022-10-17T03:22:32;99306.63;;;13.22;100.00
30182;BME280;16990;49.056;9.240;2022-10-17T03:24:58;99307.38;;;13.17;100.00
30182;BME280;16990;49.056;9.240;2022-10-17T03:27:25;99295.69;;;13.11;100.00
30182;BME280;16990;49.056;9.240;2022-10-17T03:29:52;99306.78;;;13.15;100.00
30182;BME280;16990;49.056;9.240;2022-10-17T03:32:18;99318.22;;;13.10;100.00
30182;BME280;16990;49.056;9.240;2022-10-17T03:34:45;99300.72;;;13.08;100.00
30182;BME280;16990;49.056;9.240;2022-10-17T03:37:13;99315.44;;;13.05;100.00
30182;BME280;16990;49.056;9.240;2022-10-17T03:39:39;99305.72;;;13.04;100.00
30182;BME280;16990;49.056;9.240;2022-10-17T03:42:06;99321.72;;;12.99;100.00
30182;BME280;16990;49.056;9.240;2022-10-17T03:44:33;99305.28;;;12.95;100.00
30182;BME280;16990;49.056;9.240;2022-10-17T03:46:59;99312.97;;;12.92;100.00
30182;BME280;16990;49.056;9.240;2022-10-17T03:49:26;99306.59;;;12.93;100.00
30182;BME280;16990;49.056;9.240;2022-10-17T03:51:53;99301.31;;;12.86;100.00
30182;BME280;16990;49.056;9.240;2022-10-17T03:54:21;99317.88;;;12.83;100.00
30182;BME280;16990;49.056;9.240;2022-10-17T03:56:47;99302.16;;;12.75;100.00
30182;BME280;16990;49.056;9.240;2022-10-17T03:59:15;99318.72;;;12.72;100.00
30182;BME280;16990;49.056;9.240;2022-10-17T04:01:42;99314.06;;;12.67;100.00
30182;BME280;16990;49.056;9.240;2022-10-17T04:04:08;99318.25;;;12.63;100.00
30182;BME280;16990;49.056;9.240;2022-10-17T04:06:35;99323.00;;;12.61;100.00
30182;BME280;16990;49.056;9.240;2022-10-17T04:09:03;99311.69;;;12.59;100.00
30182;BME280;16990;49.056;9.240;2022-10-17T04:11:31;99318.00;;;12.53;100.00
30182;BME280;16990;49.056;9.240;2022-10-17T04:13:58;99319.72;;;12.47;100.00
30182;BME280;16990;49.056;9.240;2022-10-17T04:16:25;99323.13;;;12.43;100.00
30182;BME280;16990;49.056;9.240;2022-10-17T04:18:53;99327.66;;;12.42;100.00
30182;BME280;16990;49.056;9.240;2022-10-17T04:21:20;99326.03;;;12.41;100.00
30182;BME280;16990;49.056;9.240;2022-10-17T04:23:47;99331.03;;;12.38;100.00
30182;BME280;16990;49.056;9.240;2022-10-17T04:26:14;99328.13;;;12.39;100.00
30182;BME280;16990;49.056;9.240;2022-10-17T04:28:42;99334.41;;;12.33;100.00
30182;BME280;16990;49.056;9.240;2022-10-17T04:31:11;99337.66;;;12.35;100.00
30182;BME280;16990;49.056;9.240;2022-10-17T04:33:38;99340.84;;;12.44;100.00
30182;BME280;16990;49.056;9.240;2022-10-17T04:36:06;99336.28;;;12.44;100.00
30182;BME280;16990;49.056;9.240;2022-10-17T04:38:35;99341.91;;;12.54;100.00
30182;BME280;16990;49.056;9.240;2022-10-17T04:41:04;99338.50;;;12.36;100.00
30182;BME280;16990;49.056;9.240;2022-10-17T04:43:32;99342.69;;;12.31;100.00
30182;BME280;16990;49.056;9.240;2022-10-17T04:46:02;99339.41;;;12.29;100.00
30182;BME280;16990;49.056;9.240;2022-10-17T04:48:31;99353.88;;;12.28;100.00
30182;BME280;16990;49.056;9.240;2022-10-17T04:50:59;99347.47;;;12.29;100.00
30182;BME280;16990;49.056;9.240;2022-10-17T04:53:26;99343.72;;;12.30;100.00
30182;BME280;16990;49.056;9.240;2022-10-17T04:55:53;99354.44;;;12.30;100.00
30182;BME280;16990;49.056;9.240;2022-10-17T04:58:21;99338.22;;;12.25;100.00
30182;BME280;16990;49.056;9.240;2022-10-17T05:00:48;99343.53;;;12.44;100.00
30182;BME280;16990;49.056;9.240;2022-10-17T05:03:16;99354.81;;;12.34;100.00
30182;BME280;16990;49.056;9.240;2022-10-17T05:05:43;99354.59;;;12.36;100.00
30182;BME280;16990;49.056;9.240;2022-10-17T05:08:10;99356.56;;;12.28;100.00
30182;BME280;16990;49.056;9.240;2022-10-17T05:10:38;99354.91;;;12.27;100.00
30182;BME280;16990;49.056;9.240;2022-10-17T05:13:06;99356.88;;;12.20;100.00
30182;BME280;16990;49.056;9.240;2022-10-17T05:15:33;99363.28;;;12.19;100.00
30182;BME280;16990;49.056;9.240;2022-10-17T05:18:00;99359.22;;;12.17;100.00
30182;BME280;16990;49.056;9.240;2022-10-17T05:20:28;99359.22;;;12.17;100.00
30182;BME280;16990;49.056;9.240;2022-10-17T05:22:57;99356.28;;;12.18;100.00
30182;BME280;16990;49.056;9.240;2022-10-17T05:25:24;99361.50;;;12.13;100.00
30182;BME280;16990;49.056;9.240;2022-10-17T05:27:51;99357.34;;;12.17;100.00
30182;BME280;16990;49.056;9.240;2022-10-17T05:30:17;99354.78;;;12.22;100.00
30182;BME280;16990;49.056;9.240;2022-10-17T05:32:44;99354.78;;;12.22;100.00
30182;BME280;16990;49.056;9.240;2022-10-17T05:35:11;99361.09;;;12.28;100.00
30182;BME280;16990;49.056;9.240;2022-10-17T05:37:39;99365.75;;;12.32;100.00
30182;BME280;16990;49.056;9.240;2022-10-17T05:40:06;99361.00;;;12.34;100.00
30182;BME280;16990;49.056;9.240;2022-10-17T05:42:33;99358.78;;;12.31;100.00
30182;BME280;16990;49.056;9.240;2022-10-17T05:45:00;99365.31;;;12.36;100.00
30182;BME280;16990;49.056;9.240;2022-10-17T05:47:27;99364.03;;;12.38;100.00
30182;BME280;16990;49.056;9.240;2022-10-17T05:49:53;99370.22;;;12.39;100.00
30182;BME280;16990;49.056;9.240;2022-10-17T05:52:20;99373.22;;;12.30;100.00
30182;BME280;16990;49.056;9.240;2022-10-17T05:54:48;99379.03;;;12.27;100.00
30182;BME280;16990;49.056;9.240;2022-10-17T05:57:15;99390.59;;;12.28;100.00
30182;BME280;16990;49.056;9.240;2022-10-17T05:59:41;99382.78;;;12.26;100.00
30182;BME280;16990;49.056;9.240;2022-10-17T06:02:08;99373.09;;;12.25;100.00
30182;BME280;16990;49.056;9.240;2022-10-17T06:04:35;99377.03;;;12.23;100.00
30182;BME280;16990;49.056;9.240;2022-10-17T06:07:02;99393.72;;;12.25;100.00
30182;BME280;16990;49.056;9.240;2022-10-17T06:09:29;99387.69;;;12.29;100.00
30182;BME280;16990;49.056;9.240;2022-10-17T06:11:57;99394.09;;;12.28;100.00
30182;BME280;16990;49.056;9.240;2022-10-17T06:14:24;99392.13;;;12.36;100.00
30182;BME280;16990;49.056;9.240;2022-10-17T06:16:50;99386.78;;;12.36;100.00
30182;BME280;16990;49.056;9.240;2022-10-17T06:19:17;99383.50;;;12.33;100.00
30182;BME280;16990;49.056;9.240;2022-10-17T06:21:44;99377.69;;;12.37;100.00
30182;BME280;16990;49.056;9.240;2022-10-17T06:24:11;99378.84;;;12.41;100.00
30182;BME280;16990;49.056;9.240;2022-10-17T06:26:38;99391.91;;;12.37;100.00
30182;BME280;16990;49.056;9.240;2022-10-17T06:29:06;99390.50;;;12.34;100.00
30182;BME280;16990;49.056;9.240;2022-10-17T06:31:33;99397.84;;;12.39;100.00
30182;BME280;16990;49.056;9.240;2022-10-17T06:33:59;99392.69;;;12.38;100.00
30182;BME280;16990;49.056;9.240;2022-10-17T06:36:26;99394.09;;;12.40;100.00
30182;BME280;16990;49.056;9.240;2022-10-17T06:38:53;99389.94;;;12.44;100.00
30182;BME280;16990;49.056;9.240;2022-10-17T06:41:19;99402.66;;;12.49;100.00
30182;BME280;16990;49.056;9.240;2022-10-17T06:43:47;99407.22;;;12.48;100.00
30182;BME280;16990;49.056;9.240;2022-10-17T06:46:17;99412.34;;;12.50;100.00
30182;BME280;16990;49.056;9.240;2022-10-17T06:48:44;99414.78;;;12.51;100.00
30182;BME280;16990;49.056;9.240;2022-10-17T06:51:11;99418.88;;;12.54;100.00
30182;BME280;16990;49.056;9.240;2022-10-17T06:53:39;99419.47;;;12.56;100.00
30182;BME280;16990;49.056;9.240;2022-10-17T06:56:07;99414.47;;;12.60;100.00
30182;BME280;16990;49.056;9.240;2022-10-17T06:58:36;99425.75;;;12.62;100.00
30182;BME280;16990;49.056;9.240;2022-10-17T07:01:05;99425.06;;;12.66;100.00
30182;BME280;16990;49.056;9.240;2022-10-17T07:03:34;99425.44;;;12.70;100.00
30182;BME280;16990;49.056;9.240;2022-10-17T07:06:01;99425.34;;;12.76;100.00
30182;BME280;16990;49.056;9.240;2022-10-17T07:08:28;99438.88;;;12.82;100.00
30182;BME280;16990;49.056;9.240;2022-10-17T07:10:55;99442.31;;;13.01;100.00
30182;BME280;16990;49.056;9.240;2022-10-17T07:13:22;99436.56;;;12.97;100.00
30182;BME280;16990;49.056;9.240;2022-10-17T07:15:49;99447.41;;;13.02;100.00
30182;BME280;16990;49.056;9.240;2022-10-17T07:18:16;99447.56;;;13.07;100.00
30182;BME280;16990;49.056;9.240;2022-10-17T07:20:51;99450.69;;;13.16;100.00
30182;BME280;16990;49.056;9.240;2022-10-17T07:23:19;99459.47;;;13.23;100.00
30182;BME280;16990;49.056;9.240;2022-10-17T07:25:45;99452.34;;;13.29;100.00
30182;BME280;16990;49.056;9.240;2022-10-17T07:28:12;99450.84;;;13.33;100.00
30182;BME280;16990;49.056;9.240;2022-10-17T07:30:39;99454.72;;;13.37;100.00
30182;BME280;16990;49.056;9.240;2022-10-17T07:33:06;99462.66;;;13.44;100.00
30182;BME280;16990;49.056;9.240;2022-10-17T07:35:33;99457.97;;;13.51;100.00
30182;BME280;16990;49.056;9.240;2022-10-17T07:38:01;99462.75;;;13.60;100.00
30182;BME280;16990;49.056;9.240;2022-10-17T07:40:27;99461.91;;;13.72;100.00
30182;BME280;16990;49.056;9.240;2022-10-17T07:42:54;99467.41;;;13.77;100.00
30182;BME280;16990;49.056;9.240;2022-10-17T07:45:21;99465.75;;;13.88;100.00
30182;BME280;16990;49.056;9.240;2022-10-17T07:47:48;99476.31;;;14.18;100.00
30182;BME280;16990;49.056;9.240;2022-10-17T07:50:15;99472.69;;;14.41;100.00
30182;BME280;16990;49.056;9.240;2022-10-17T07:52:42;99475.84;;;14.78;100.00
30182;BME280;16990;49.056;9.240;2022-10-17T07:55:10;99469.56;;;14.89;100.00
30182;BME280;16990;49.056;9.240;2022-10-17T07:57:36;99477.06;;;15.04;100.00
30182;BME280;16990;49.056;9.240;2022-10-17T08:00:06;99475.19;;;15.22;100.00
30182;BME280;16990;49.056;9.240;2022-10-17T08:02:33;99477.56;;;15.18;100.00
30182;BME280;16990;49.056;9.240;2022-10-17T08:04:59;99476.97;;;15.33;100.00
30182;BME280;16990;49.056;9.240;2022-10-17T08:07:26;99476.56;;;15.41;100.00
30182;BME280;16990;49.056;9.240;2022-10-17T08:09:53;99482.84;;;15.47;100.00
30182;BME280;16990;49.056;9.240;2022-10-17T08:12:21;99487.91;;;15.43;100.00
30182;BME280;16990;49.056;9.240;2022-10-17T08:14:48;99486.19;;;15.54;100.00
30182;BME280;16990;49.056;9.240;2022-10-17T08:17:15;99493.03;;;15.62;100.00
30182;BME280;16990;49.056;9.240;2022-10-17T08:19:41;99486.00;;;15.61;100.00
30182;BME280;16990;49.056;9.240;2022-10-17T08:22:08;99484.59;;;15.75;100.00
30182;BME280;16990;49.056;9.240;2022-10-17T08:24:35;99483.00;;;15.96;100.00
30182;BME280;16990;49.056;9.240;2022-10-17T08:27:01;99483.06;;;16.01;100.00
30182;BME280;16990;49.056;9.240;2022-10-17T08:29:37;99479.31;;;16.02;100.00
30182;BME280;16990;49.056;9.240;2022-10-17T08:32:03;99485.38;;;16.14;100.00
30182;BME280;16990;49.056;9.240;2022-10-17T08:34:30;99492.97;;;16.17;100.00
30182;BME280;16990;49.056;9.240;2022-10-17T08:36:57;99491.09;;;16.40;99.62
30182;BME280;16990;49.056;9.240;2022-10-17T08:39:24;99495.97;;;16.43;100.00
30182;BME280;16990;49.056;9.240;2022-10-17T08:42:02;99489.53;;;16.49;97.80
30182;BME280;16990;49.056;9.240;2022-10-17T08:44:41;99480.81;;;16.42;95.11
30182;BME280;16990;49.056;9.240;2022-10-17T08:47:23;99488.78;;;16.54;96.05
30182;BME280;16990;49.056;9.240;2022-10-17T08:49:54;99469.06;;;16.53;94.85
30182;BME280;16990;49.056;9.240;2022-10-17T08:52:29;99495.28;;;16.80;94.55
30182;BME280;16990;49.056;9.240;2022-10-17T08:54:57;99478.03;;;16.81;96.22
30182;BME280;16990;49.056;9.240;2022-10-17T08:57:25;99481.59;;;16.92;94.52
30182;BME280;16990;49.056;9.240;2022-10-17T08:59:54;99485.16;;;16.97;95.23
30182;BME280;16990;49.056;9.240;2022-10-17T09:02:40;99477.84;;;16.93;94.41
30182;BME280;16990;49.056;9.240;2022-10-17T09:05:24;99492.44;;;16.97;95.07
30182;BME280;16990;49.056;9.240;2022-10-17T09:07:59;99495.59;;;17.16;95.84
30182;BME280;16990;49.056;9.240;2022-10-17T09:10:33;99502.34;;;17.18;93.05
30182;BME280;16990;49.056;9.240;2022-10-17T09:13:10;99484.56;;;17.22;93.29
30182;BME280;16990;49.056;9.240;2022-10-17T09:15:51;99503.31;;;17.34;91.95
30182;BME280;16990;49.056;9.240;2022-10-17T09:18:25;99476.25;;;17.29;92.46
30182;BME280;16990;49.056;9.240;2022-10-17T09:20:55;99480.41;;;17.47;89.39
30182;BME280;16990;49.056;9.240;2022-10-17T09:23:25;99503.53;;;17.70;91.12
30182;BME280;16990;49.056;9.240;2022-10-17T09:25:55;99491.34;;;17.68;90.49
30182;BME280;16990;49.056;9.240;2022-10-17T09:28:26;99506.34;;;17.85;89.69
30182;BME280;16990;49.056;9.240;2022-10-17T09:31:00;99503.13;;;17.89;89.60
30182;BME280;16990;49.056;9.240;2022-10-17T09:33:31;99488.53;;;17.90;89.40
30182;BME280;16990;49.056;9.240;2022-10-17T09:35:59;99499.16;;;18.12;89.05
30182;BME280;16990;49.056;9.240;2022-10-17T09:38:35;99498.41;;;18.26;89.41
30182;BME280;16990;49.056;9.240;2022-10-17T09:41:06;99489.81;;;18.45;86.24
30182;BME280;16990;49.056;9.240;2022-10-17T09:43:38;99477.28;;;18.23;87.20
30182;BME280;16990;49.056;9.240;2022-10-17T09:46:11;99473.53;;;18.30;85.37
30182;BME280;16990;49.056;9.240;2022-10-17T09:48:42;99460.00;;;18.40;89.62
30182;BME280;16990;49.056;9.240;2022-10-17T09:51:12;99474.66;;;18.59;87.62
30182;BME280;16990;49.056;9.240;2022-10-17T09:53:42;99495.06;;;18.82;87.97
30182;BME280;16990;49.056;9.240;2022-10-17T09:56:12;99504.00;;;18.93;87.18
30182;BME280;16990;49.056;9.240;2022-10-17T09:58:41;99492.09;;;19.04;83.86
30182;BME280;16990;49.056;9.240;2022-10-17T10:01:19;99489.91;;;18.96;88.03
30182;BME280;16990;49.056;9.240;2022-10-17T10:03:46;99472.03;;;19.16;86.63
30182;BME280;16990;49.056;9.240;2022-10-17T10:06:15;99474.72;;;19.31;85.02
30182;BME280;16990;49.056;9.240;2022-10-17T10:08:50;99482.31;;;19.29;84.17
30182;BME280;16990;49.056;9.240;2022-10-17T10:11:22;99480.13;;;19.36;84.64
30182;BME280;16990;49.056;9.240;2022-10-17T10:13:49;99489.59;;;19.49;82.32
30182;BME280;16990;49.056;9.240;2022-10-17T10:16:24;99458.47;;;19.31;80.11
30182;BME280;16990;49.056;9.240;2022-10-17T10:18:55;99459.00;;;19.38;81.10
30182;BME280;16990;49.056;9.240;2022-10-17T10:21:24;99486.06;;;19.53;82.46
30182;BME280;16990;49.056;9.240;2022-10-17T10:24:15;99507.22;;;19.72;81.71
30182;BME280;16990;49.056;9.240;2022-10-17T10:26:43;99489.31;;;19.76;80.04
30182;BME280;16990;49.056;9.240;2022-10-17T10:29:27;99492.84;;;19.76;80.71
30182;BME280;16990;49.056;9.240;2022-10-17T10:32:06;99486.88;;;19.74;82.45
30182;BME280;16990;49.056;9.240;2022-10-17T10:34:34;99491.75;;;19.77;79.74
30182;BME280;16990;49.056;9.240;2022-10-17T10:37:02;99491.94;;;19.96;79.81
30182;BME280;16990;49.056;9.240;2022-10-17T10:39:34;99491.44;;;19.94;81.51
30182;BME280;16990;49.056;9.240;2022-10-17T10:42:04;99488.63;;;20.15;79.71
30182;BME280;16990;49.056;9.240;2022-10-17T10:44:32;99497.34;;;20.12;80.71
30182;BME280;16990;49.056;9.240;2022-10-17T10:47:17;99489.25;;;20.02;80.98
30182;BME280;16990;49.056;9.240;2022-10-17T10:49:45;99503.75;;;20.31;79.06
30182;BME280;16990;49.056;9.240;2022-10-17T10:52:19;99499.19;;;20.22;80.58
30182;BME280;16990;49.056;9.240;2022-10-17T10:54:54;99500.44;;;20.39;81.60
30182;BME280;16990;49.056;9.240;2022-10-17T10:57:25;99507.72;;;20.54;78.05
30182;BME280;16990;49.056;9.240;2022-10-17T10:59:58;99503.06;;;20.65;77.25
30182;BME280;16990;49.056;9.240;2022-10-17T11:02:30;99500.66;;;20.58;78.59
30182;BME280;16990;49.056;9.240;2022-10-17T11:05:02;99498.66;;;20.74;78.13
30182;BME280;16990;49.056;9.240;2022-10-17T11:07:32;99507.34;;;20.76;78.27
30182;BME280;16990;49.056;9.240;2022-10-17T11:10:09;99487.25;;;20.72;78.63
30182;BME280;16990;49.056;9.240;2022-10-17T11:12:41;99499.59;;;20.94;77.08
30182;BME280;16990;49.056;9.240;2022-10-17T11:15:17;99491.94;;;21.01;75.75
30182;BME280;16990;49.056;9.240;2022-10-17T11:17:53;99507.63;;;21.09;75.97
30182;BME280;16990;49.056;9.240;2022-10-17T11:20:27;99504.31;;;21.17;75.18
30182;BME280;16990;49.056;9.240;2022-10-17T11:23:01;99491.56;;;21.13;75.24
30182;BME280;16990;49.056;9.240;2022-10-17T11:25:35;99506.50;;;21.15;76.01
30182;BME280;16990;49.056;9.240;2022-10-17T11:28:03;99504.41;;;21.07;76.13
30182;BME280;16990;49.056;9.240;2022-10-17T11:30:41;99498.03;;;21.22;73.66
30182;BME280;16990;49.056;9.240;2022-10-17T11:33:16;99494.03;;;21.09;75.33
30182;BME280;16990;49.056;9.240;2022-10-17T11:35:44;99509.22;;;21.15;75.10
30182;BME280;16990;49.056;9.240;2022-10-17T11:38:16;99501.72;;;21.36;73.48
30182;BME280;16990;49.056;9.240;2022-10-17T11:40:45;99491.47;;;21.57;71.59
30182;BME280;16990;49.056;9.240;2022-10-17T11:43:18;99468.19;;;21.46;72.66
30182;BME280;16990;49.056;9.240;2022-10-17T11:45:48;99490.88;;;21.60;71.65
30182;BME280;16990;49.056;9.240;2022-10-17T11:48:22;99492.81;;;21.84;71.86
30182;BME280;16990;49.056;9.240;2022-10-17T11:50:53;99477.09;;;21.76;71.47
30182;BME280;16990;49.056;9.240;2022-10-17T11:53:28;99482.94;;;21.88;70.52
30182;BME280;16990;49.056;9.240;2022-10-17T11:55:57;99501.91;;;21.98;70.00
30182;BME280;16990;49.056;9.240;2022-10-17T11:58:33;99504.44;;;22.14;70.72
30182;BME280;16990;49.056;9.240;2022-10-17T12:01:08;99483.81;;;22.07;68.33
30182;BME280;16990;49.056;9.240;2022-10-17T12:03:50;99496.50;;;22.17;69.65
30182;BME280;16990;49.056;9.240;2022-10-17T12:06:33;99492.91;;;22.22;69.42
30182;BME280;16990;49.056;9.240;2022-10-17T12:09:09;99490.16;;;22.46;68.12
30182;BME280;16990;49.056;9.240;2022-10-17T12:11:46;99493.53;;;22.14;69.15
30182;BME280;16990;49.056;9.240;2022-10-17T12:14:39;99494.84;;;22.21;69.25
30182;BME280;16990;49.056;9.240;2022-10-17T12:17:23;99502.81;;;22.13;69.41
30182;BME280;16990;49.056;9.240;2022-10-17T12:19:52;99491.31;;;22.21;70.44
30182;BME280;16990;49.056;9.240;2022-10-17T12:22:21;99496.19;;;22.19;68.70
30182;BME280;16990;49.056;9.240;2022-10-17T12:24:58;99503.78;;;22.27;69.72
30182;BME280;16990;49.056;9.240;2022-10-17T12:27:50;99499.94;;;22.28;69.35
30182;BME280;16990;49.056;9.240;2022-10-17T12:30:20;99501.28;;;22.49;68.34
30182;BME280;16990;49.056;9.240;2022-10-17T12:32:57;99496.94;;;22.67;68.96
30182;BME280;16990;49.056;9.240;2022-10-17T12:35:28;99477.63;;;22.64;67.72
30182;BME280;16990;49.056;9.240;2022-10-17T12:41:04;99478.34;;;22.50;69.59
30182;BME280;16990;49.056;9.240;2022-10-17T12:43:44;99501.56;;;22.67;69.51
30182;BME280;16990;49.056;9.240;2022-10-17T12:46:12;99482.81;;;22.65;70.33
30182;BME280;16990;49.056;9.240;2022-10-17T12:49:02;99475.72;;;22.64;69.67
30182;BME280;16990;49.056;9.240;2022-10-17T12:52:13;99485.22;;;22.67;70.58
30182;BME280;16990;49.056;9.240;2022-10-17T12:54:42;99503.22;;;22.68;70.27
30182;BME280;16990;49.056;9.240;2022-10-17T12:57:18;99516.59;;;22.83;69.80
30182;BME280;16990;49.056;9.240;2022-10-17T12:59:46;99513.22;;;22.91;68.79
30182;BME280;16990;49.056;9.240;2022-10-17T13:02:17;99490.66;;;22.67;69.41
30182;BME280;16990;49.056;9.240;2022-10-17T13:04:44;99513.00;;;22.88;69.75
30182;BME280;16990;49.056;9.240;2022-10-17T13:07:17;99493.91;;;22.69;71.24
30182;BME280;16990;49.056;9.240;2022-10-17T13:09:45;99511.22;;;22.97;70.85
30182;BME280;16990;49.056;9.240;2022-10-17T13:12:17;99518.66;;;22.91;70.05